createdAt,value
2023-05-13T00:00:21.164Z,99.90
2023-05-13T00:02:49.718Z,99.90
2023-05-13T00:05:18.213Z,99.90
2023-05-13T00:07:46.583Z,99.90
2023-05-13T00:10:16.593Z,99.90
2023-05-13T00:12:44.972Z,99.90
2023-05-13T00:15:13.470Z,99.90
2023-05-13T00:17:43.275Z,99.90
2023-05-13T00:20:11.859Z,99.90
2023-05-13T00:22:40.094Z,99.90
2023-05-13T00:25:08.911Z,99.90
2023-05-13T00:27:37.279Z,99.90
2023-05-13T00:30:06.161Z,99.90
2023-05-13T00:32:34.492Z,99.90
2023-05-13T00:35:04.429Z,99.90
2023-05-13T00:37:32.781Z,99.90
2023-05-13T00:40:01.260Z,99.90
2023-05-13T00:42:29.658Z,99.90
2023-05-13T00:44:58.009Z,99.90
2023-05-13T00:47:26.416Z,99.90
2023-05-13T00:49:54.725Z,99.90
2023-05-13T00:52:24.541Z,99.90
2023-05-13T00:54:52.810Z,99.90
2023-05-13T00:57:21.301Z,99.90
2023-05-13T00:59:49.574Z,99.90
2023-05-13T01:02:24.785Z,99.90
2023-05-13T01:05:05.524Z,99.90
2023-05-13T01:07:42.312Z,99.90
2023-05-13T01:10:16.723Z,99.90
2023-05-13T01:12:47.511Z,99.90
2023-05-13T01:15:18.396Z,99.90
2023-05-13T01:17:51.729Z,99.90
2023-05-13T01:20:24.111Z,99.90
2023-05-13T01:22:54.607Z,99.90
2023-05-13T01:25:22.971Z,99.90
2023-05-13T01:27:51.593Z,99.90
2023-05-13T01:30:20.725Z,99.90
2023-05-13T01:32:50.023Z,99.90
2023-05-13T01:35:19.147Z,99.90
2023-05-13T01:37:48.893Z,99.90
2023-05-13T01:40:31.618Z,99.90
2023-05-13T01:43:01.723Z,99.90
2023-05-13T01:45:30.880Z,99.90
2023-05-13T01:47:59.320Z,99.90
2023-05-13T01:50:27.731Z,99.90
2023-05-13T01:52:57.348Z,99.90
2023-05-13T01:55:27.191Z,99.90
2023-05-13T01:57:55.628Z,99.90
2023-05-13T02:00:24.249Z,99.90
2023-05-13T02:02:52.594Z,99.90
2023-05-13T02:05:21.050Z,99.90
2023-05-13T02:07:49.334Z,99.90
2023-05-13T02:10:17.828Z,99.90
2023-05-13T02:12:47.971Z,99.90
2023-05-13T02:15:16.366Z,99.90
2023-05-13T02:17:44.748Z,99.90
2023-05-13T02:20:15.361Z,99.90
2023-05-13T02:22:43.604Z,99.90
2023-05-13T02:25:12.235Z,99.90
2023-05-13T02:27:40.558Z,99.90
2023-05-13T02:30:11.212Z,99.90
2023-05-13T02:32:42.763Z,99.90
2023-05-13T02:35:11.533Z,99.90
2023-05-13T02:37:39.764Z,99.90
2023-05-13T02:40:09.345Z,99.90
2023-05-13T02:42:37.612Z,99.90
2023-05-13T02:45:06.364Z,99.90
2023-05-13T02:47:36.051Z,99.90
2023-05-13T02:50:08.043Z,99.90
2023-05-13T02:52:36.486Z,99.90
2023-05-13T02:55:04.911Z,99.90
2023-05-13T02:57:33.363Z,99.90
2023-05-13T03:00:01.632Z,99.90
2023-05-13T03:02:30.051Z,99.90
2023-05-13T03:04:59.794Z,99.90
2023-05-13T03:07:28.136Z,99.90
2023-05-13T03:09:56.509Z,99.90
2023-05-13T03:12:25.189Z,99.90
2023-05-13T03:14:53.464Z,99.90
2023-05-13T03:17:21.716Z,99.90
2023-05-13T03:19:50.061Z,99.90
2023-05-13T03:22:19.833Z,99.90
2023-05-13T03:24:48.151Z,99.90
2023-05-13T03:27:16.426Z,99.90
2023-05-13T03:29:44.647Z,99.90
2023-05-13T03:32:13.020Z,99.90
2023-05-13T03:34:41.328Z,99.90
2023-05-13T03:37:10.014Z,99.90
2023-05-13T03:39:39.664Z,99.90
2023-05-13T03:42:08.519Z,99.90
2023-05-13T03:44:37.012Z,99.90
2023-05-13T03:47:05.588Z,99.90
2023-05-13T03:49:34.026Z,99.90
2023-05-13T03:52:02.302Z,99.90
2023-05-13T03:54:30.577Z,99.90
2023-05-13T03:57:00.291Z,99.90
2023-05-13T03:59:28.508Z,99.90
2023-05-13T04:01:56.775Z,99.90
2023-05-13T04:04:25.206Z,99.90
2023-05-13T04:06:53.574Z,99.90
2023-05-13T04:09:21.851Z,99.90
2023-05-13T04:11:50.106Z,99.90
2023-05-13T04:14:20.096Z,99.90
2023-05-13T04:16:48.645Z,99.90
2023-05-13T04:19:17.553Z,99.90
2023-05-13T04:21:45.781Z,99.90
2023-05-13T04:24:14.018Z,99.90
2023-05-13T04:26:42.278Z,99.90
2023-05-13T04:29:10.808Z,99.90
2023-05-13T04:31:40.530Z,99.90
2023-05-13T04:34:08.778Z,99.90
2023-05-13T04:36:37.152Z,99.90
2023-05-13T04:39:05.552Z,99.90
2023-05-13T04:41:33.819Z,99.90
2023-05-13T04:44:02.594Z,99.90
2023-05-13T04:46:30.940Z,99.90
2023-05-13T04:49:00.652Z,99.90
2023-05-13T04:51:29.290Z,99.90
2023-05-13T04:53:57.889Z,99.90
2023-05-13T04:56:26.196Z,99.90
2023-05-13T04:58:54.438Z,99.90
2023-05-13T05:01:22.636Z,99.90
2023-05-13T05:03:50.909Z,99.90
2023-05-13T05:06:21.918Z,99.90
2023-05-13T05:08:50.153Z,99.90
2023-05-13T05:11:18.372Z,99.90
2023-05-13T05:13:46.703Z,99.90
2023-05-13T05:16:15.497Z,99.90
2023-05-13T05:18:44.261Z,99.90
2023-05-13T05:21:12.849Z,99.90
2023-05-13T05:23:42.480Z,99.90
2023-05-13T05:26:12.414Z,99.90
2023-05-13T05:28:43.135Z,99.90
2023-05-13T05:31:11.414Z,99.90
2023-05-13T05:33:40.011Z,99.90
2023-05-13T05:36:09.148Z,99.90
2023-05-13T05:38:37.494Z,99.90
2023-05-13T05:41:07.488Z,99.90
2023-05-13T05:43:35.703Z,99.90
2023-05-13T05:46:05.174Z,99.40
2023-05-13T05:48:34.807Z,96.90
2023-05-13T05:51:03.352Z,94.20
2023-05-13T05:53:31.791Z,92.00
2023-05-13T05:56:00.047Z,93.40
2023-05-13T05:58:29.772Z,93.40
2023-05-13T06:00:58.451Z,93.20
2023-05-13T06:03:29.376Z,92.70
2023-05-13T06:05:57.715Z,92.00
2023-05-13T06:08:30.123Z,90.50
2023-05-13T06:10:59.513Z,85.50
2023-05-13T06:13:29.151Z,82.00
2023-05-13T06:15:57.435Z,79.70
2023-05-13T06:18:27.016Z,78.70
2023-05-13T06:20:55.316Z,76.10
2023-05-13T06:23:23.515Z,74.00
2023-05-13T06:25:51.827Z,69.20
2023-05-13T06:28:20.159Z,62.70
2023-05-13T06:30:49.803Z,61.80
2023-05-13T06:33:18.059Z,59.90
2023-05-13T06:35:49.475Z,59.30
2023-05-13T06:38:18.827Z,58.40
2023-05-13T06:40:47.181Z,57.60
2023-05-13T06:43:16.575Z,56.80
2023-05-13T06:45:44.883Z,54.60
2023-05-13T06:48:15.220Z,55.50
2023-05-13T06:50:43.571Z,57.20
2023-05-13T06:53:12.635Z,55.10
2023-05-13T06:55:42.786Z,55.10
2023-05-13T06:58:11.570Z,53.70
2023-05-13T07:00:41.259Z,51.60
2023-05-13T07:03:09.794Z,52.40
2023-05-13T07:05:40.126Z,52.50
2023-05-13T07:08:09.053Z,51.60
2023-05-13T07:10:38.004Z,49.70
2023-05-13T07:13:06.595Z,48.20
2023-05-13T07:15:35.005Z,49.70
2023-05-13T07:18:03.284Z,50.90
2023-05-13T07:20:31.519Z,49.40
2023-05-13T07:23:01.193Z,48.60
2023-05-13T07:25:29.450Z,47.10
2023-05-13T07:27:57.809Z,48.40
2023-05-13T07:30:26.127Z,48.00
2023-05-13T07:32:54.522Z,47.90
2023-05-13T07:35:23.717Z,49.50
2023-05-13T07:37:52.385Z,51.70
2023-05-13T07:40:22.292Z,52.60
2023-05-13T07:42:50.644Z,53.70
2023-05-13T07:45:19.213Z,50.50
2023-05-13T07:47:47.712Z,50.60
2023-05-13T07:50:16.035Z,52.10
2023-05-13T07:52:44.405Z,50.10
2023-05-13T07:55:13.150Z,50.10
2023-05-13T07:57:42.766Z,50.90
2023-05-13T08:00:11.917Z,50.70
2023-05-13T08:02:40.470Z,49.60
2023-05-13T08:05:09.487Z,51.30
2023-05-13T08:07:37.721Z,51.90
2023-05-13T08:10:07.021Z,51.70
2023-05-13T08:12:38.097Z,49.10
2023-05-13T08:15:09.477Z,48.30
2023-05-13T08:17:40.645Z,50.50
2023-05-13T08:20:11.370Z,47.60
2023-05-13T08:22:39.724Z,48.60
2023-05-13T08:25:08.374Z,49.90
2023-05-13T08:27:36.717Z,50.80
2023-05-13T08:30:08.179Z,51.30
2023-05-13T08:32:37.900Z,49.10
2023-05-13T08:35:06.824Z,51.20
2023-05-13T08:37:35.207Z,49.30
2023-05-13T08:40:04.503Z,48.40
2023-05-13T08:42:34.450Z,48.10
2023-05-13T08:45:06.260Z,48.40
2023-05-13T08:47:45.063Z,47.80
2023-05-13T08:50:14.421Z,47.90
2023-05-13T08:52:44.571Z,48.50
2023-05-13T08:55:13.631Z,49.10
2023-05-13T08:57:41.865Z,51.30
2023-05-13T09:00:10.864Z,49.60
2023-05-13T09:02:40.586Z,50.50
2023-05-13T09:05:10.397Z,52.20
2023-05-13T09:07:40.658Z,53.60
2023-05-13T09:10:10.424Z,53.70
2023-05-13T09:12:46.600Z,53.70
2023-05-13T09:15:16.943Z,54.20
2023-05-13T09:17:48.984Z,56.10
2023-05-13T09:20:18.513Z,55.90
2023-05-13T09:22:47.659Z,55.90
2023-05-13T09:25:19.696Z,56.80
2023-05-13T09:27:50.324Z,58.80
2023-05-13T09:30:18.574Z,57.20
2023-05-13T09:33:06.594Z,59.10
2023-05-13T09:35:36.150Z,60.70
2023-05-13T09:38:13.993Z,64.50
2023-05-13T09:40:42.346Z,60.20
2023-05-13T09:43:10.544Z,59.90
2023-05-13T09:45:38.793Z,59.90
2023-05-13T09:48:11.345Z,58.40
2023-05-13T09:50:49.419Z,59.00
2023-05-13T09:53:19.122Z,60.00
2023-05-13T09:55:48.148Z,61.00
2023-05-13T09:58:16.866Z,60.70
2023-05-13T10:00:45.633Z,60.80
2023-05-13T10:03:16.279Z,61.20
2023-05-13T10:05:45.097Z,63.20
2023-05-13T10:08:14.744Z,61.30
2023-05-13T10:10:45.780Z,65.40
2023-05-13T10:13:17.388Z,66.60
2023-05-13T10:15:52.410Z,69.30
2023-05-13T10:18:24.028Z,71.40
2023-05-13T10:20:54.203Z,73.60
2023-05-13T10:23:24.488Z,75.50
2023-05-13T10:25:54.815Z,78.50
2023-05-13T10:28:26.548Z,83.50
2023-05-13T10:30:54.903Z,89.30
2023-05-13T10:33:24.953Z,91.40
2023-05-13T10:36:07.977Z,95.20
2023-05-13T10:38:52.056Z,99.90
2023-05-13T10:41:58.017Z,99.90
2023-05-13T10:44:26.321Z,99.90
2023-05-13T10:46:57.156Z,99.90
2023-05-13T10:49:34.882Z,99.90
2023-05-13T10:52:06.905Z,99.90
2023-05-13T10:54:40.573Z,99.90
2023-05-13T10:57:09.267Z,99.90
2023-05-13T10:59:38.956Z,99.90
2023-05-13T11:02:22.867Z,99.90
2023-05-13T11:05:02.749Z,99.90
2023-05-13T11:07:31.182Z,99.90
2023-05-13T11:10:02.164Z,99.90
2023-05-13T11:12:30.595Z,99.90
2023-05-13T11:14:59.509Z,99.90
2023-05-13T11:17:27.866Z,99.90
2023-05-13T11:19:57.519Z,99.90
2023-05-13T11:22:27.678Z,99.90
2023-05-13T11:25:07.134Z,99.90
2023-05-13T11:27:39.796Z,99.90
2023-05-13T11:30:09.582Z,99.90
2023-05-13T11:32:56.210Z,99.90
2023-05-13T11:35:26.458Z,99.90
2023-05-13T11:37:58.372Z,99.90
2023-05-13T11:40:33.230Z,99.90
2023-05-13T11:43:02.333Z,99.90
2023-05-13T11:45:31.273Z,99.90
2023-05-13T11:47:59.714Z,99.90
2023-05-13T11:50:29.967Z,99.90
2023-05-13T11:53:01.167Z,99.90
2023-05-13T11:55:31.233Z,99.90
2023-05-13T11:58:00.222Z,99.90
2023-05-13T12:00:29.657Z,99.90
2023-05-13T12:02:58.728Z,99.90
2023-05-13T12:05:27.760Z,99.90
2023-05-13T12:08:00.015Z,99.90
2023-05-13T12:10:28.381Z,99.90
2023-05-13T12:12:56.717Z,99.90
2023-05-13T12:15:25.533Z,99.90
2023-05-13T12:17:54.904Z,99.90
2023-05-13T12:20:24.401Z,99.90
2023-05-13T12:22:54.634Z,99.90
2023-05-13T12:25:42.110Z,99.90
2023-05-13T12:28:12.284Z,99.90
2023-05-13T12:30:42.510Z,99.90
2023-05-13T12:33:15.931Z,99.90
2023-05-13T12:35:48.834Z,99.90
2023-05-13T12:38:18.992Z,99.90
2023-05-13T12:40:49.764Z,99.90
2023-05-13T12:43:22.055Z,99.90
2023-05-13T12:45:55.140Z,99.90
2023-05-13T12:48:26.099Z,99.90
2023-05-13T12:50:54.444Z,99.90
2023-05-13T12:53:22.684Z,99.90
2023-05-13T12:55:52.685Z,99.90
2023-05-13T12:58:20.928Z,99.90
2023-05-13T13:00:49.332Z,99.90
2023-05-13T13:03:17.622Z,99.90
2023-05-13T13:05:46.805Z,99.90
2023-05-13T13:08:15.160Z,99.90
2023-05-13T13:10:43.401Z,99.90
2023-05-13T13:13:13.186Z,99.90
2023-05-13T13:15:41.453Z,99.90
2023-05-13T13:18:09.817Z,99.90
2023-05-13T13:20:38.589Z,99.90
2023-05-13T13:23:12.947Z,99.20
2023-05-13T13:25:44.714Z,99.00
2023-05-13T13:28:14.368Z,97.90
2023-05-13T13:30:46.508Z,99.90
2023-05-13T13:33:16.122Z,98.20
2023-05-13T13:35:45.123Z,96.30
2023-05-13T13:38:13.382Z,97.10
2023-05-13T13:40:41.611Z,91.90
2023-05-13T13:43:10.320Z,90.30
2023-05-13T13:45:40.675Z,93.00
2023-05-13T13:48:09.020Z,92.00
2023-05-13T13:50:38.584Z,90.70
2023-05-13T13:53:09.860Z,90.60
2023-05-13T13:55:38.075Z,87.90
2023-05-13T13:58:11.925Z,90.20
2023-05-13T14:00:41.608Z,90.50
2023-05-13T14:03:09.993Z,93.80
2023-05-13T14:05:38.354Z,96.70
2023-05-13T14:08:07.068Z,99.00
2023-05-13T14:10:35.381Z,99.10
2023-05-13T14:13:03.757Z,99.90
2023-05-13T14:15:32.079Z,99.90
2023-05-13T14:18:01.803Z,99.90
2023-05-13T14:20:30.158Z,99.90
2023-05-13T14:23:01.878Z,99.90
2023-05-13T14:25:34.051Z,99.90
2023-05-13T14:28:02.363Z,99.90
2023-05-13T14:30:30.677Z,99.90
2023-05-13T14:33:00.668Z,99.90
2023-05-13T14:35:30.447Z,99.90
2023-05-13T14:38:01.584Z,99.90
2023-05-13T14:40:30.717Z,99.90
2023-05-13T14:43:02.310Z,99.90
2023-05-13T14:45:30.849Z,99.90
2023-05-13T14:47:59.148Z,99.90
2023-05-13T14:50:27.479Z,99.90
2023-05-13T14:52:57.104Z,99.90
2023-05-13T14:55:25.382Z,99.90
2023-05-13T14:57:53.748Z,99.90
2023-05-13T15:00:22.433Z,99.90
2023-05-13T15:02:50.931Z,99.90
2023-05-13T15:05:20.738Z,99.90
2023-05-13T15:07:49.142Z,99.90
2023-05-13T15:10:18.990Z,99.90
2023-05-13T15:12:59.240Z,99.90
2023-05-13T15:15:27.513Z,99.90
2023-05-13T15:17:55.939Z,99.90
2023-05-13T15:20:24.741Z,99.40
2023-05-13T15:22:53.025Z,99.30
2023-05-13T15:25:26.011Z,98.00
2023-05-13T15:27:54.568Z,96.90
2023-05-13T15:30:22.952Z,96.60
2023-05-13T15:32:51.484Z,96.60
2023-05-13T15:35:19.739Z,95.90
2023-05-13T15:37:47.975Z,97.80
2023-05-13T15:40:16.277Z,96.20
2023-05-13T15:42:45.898Z,95.60
2023-05-13T15:45:14.206Z,95.70
2023-05-13T15:47:42.553Z,97.40
2023-05-13T15:50:12.028Z,97.20
2023-05-13T15:52:40.324Z,97.90
2023-05-13T15:55:09.053Z,99.40
2023-05-13T15:57:40.947Z,97.80
2023-05-13T16:00:12.223Z,96.70
2023-05-13T16:02:41.514Z,96.40
2023-05-13T16:05:11.965Z,97.00
2023-05-13T16:07:40.219Z,97.30
2023-05-13T16:10:08.832Z,97.20
2023-05-13T16:12:37.285Z,97.20
2023-05-13T16:15:06.359Z,97.20
2023-05-13T16:17:39.174Z,97.40
2023-05-13T16:20:10.856Z,97.40
2023-05-13T16:22:40.241Z,96.90
2023-05-13T16:25:10.326Z,97.70
2023-05-13T16:27:40.035Z,98.40
2023-05-13T16:30:10.567Z,98.20
2023-05-13T16:32:40.657Z,99.90
2023-05-13T16:35:11.702Z,98.50
2023-05-13T16:37:40.979Z,98.90
2023-05-13T16:40:10.626Z,99.00
2023-05-13T16:42:38.936Z,99.90
2023-05-13T16:45:08.510Z,99.90
2023-05-13T16:47:36.755Z,99.90
2023-05-13T16:50:08.559Z,99.90
2023-05-13T16:52:39.577Z,99.90
2023-05-13T16:55:08.814Z,99.90
2023-05-13T16:57:37.142Z,99.90
2023-05-13T17:00:06.267Z,99.90
2023-05-13T17:02:37.566Z,99.90
2023-05-13T17:05:08.232Z,99.90
2023-05-13T17:07:36.508Z,99.90
2023-05-13T17:10:04.996Z,99.90
2023-05-13T17:12:33.551Z,99.90
2023-05-13T17:15:02.194Z,99.90
2023-05-13T17:17:30.547Z,99.90
2023-05-13T17:19:58.838Z,99.90
2023-05-13T17:22:28.555Z,99.90
2023-05-13T17:24:57.200Z,99.90
2023-05-13T17:27:25.628Z,99.90
2023-05-13T17:29:54.993Z,99.90
2023-05-13T17:32:23.463Z,99.90
2023-05-13T17:34:51.777Z,99.90
2023-05-13T17:37:19.985Z,99.90
2023-05-13T17:39:50.349Z,99.90
2023-05-13T17:42:18.673Z,99.90
2023-05-13T17:44:46.889Z,99.90
2023-05-13T17:47:15.122Z,99.90
2023-05-13T17:49:43.336Z,99.90
2023-05-13T17:52:11.656Z,99.90
2023-05-13T17:54:40.069Z,99.90
2023-05-13T17:57:15.904Z,99.90
2023-05-13T17:59:47.252Z,99.90
2023-05-13T18:02:15.688Z,99.90
2023-05-13T18:04:43.982Z,99.90
2023-05-13T18:07:15.340Z,99.90
2023-05-13T18:09:44.494Z,99.90
2023-05-13T18:12:12.752Z,99.90
2023-05-13T18:14:42.374Z,99.90
2023-05-13T18:17:10.669Z,99.90
2023-05-13T18:19:38.984Z,99.90
2023-05-13T18:22:09.348Z,99.90
2023-05-13T18:24:38.428Z,99.90
2023-05-13T18:27:07.596Z,99.90
2023-05-13T18:29:48.253Z,99.90
2023-05-13T18:32:20.843Z,99.90
2023-05-13T18:34:49.148Z,99.90
2023-05-13T18:37:18.492Z,99.90
2023-05-13T18:39:49.822Z,99.90
2023-05-13T18:42:20.968Z,99.90
2023-05-13T18:44:49.177Z,99.90
2023-05-13T18:47:18.931Z,99.90
2023-05-13T18:49:47.289Z,99.90
2023-05-13T18:52:15.622Z,99.90
2023-05-13T18:54:43.861Z,99.90
2023-05-13T18:57:15.113Z,99.90
2023-05-13T18:59:43.375Z,99.90
2023-05-13T19:02:14.717Z,99.90
2023-05-13T19:04:44.571Z,99.90
2023-05-13T19:07:12.921Z,99.90
2023-05-13T19:09:41.156Z,99.90
2023-05-13T19:12:09.954Z,99.90
2023-05-13T19:14:38.226Z,99.90
2023-05-13T19:17:06.939Z,99.90
2023-05-13T19:19:35.183Z,99.90
2023-05-13T19:22:04.993Z,99.90
2023-05-13T19:24:33.333Z,99.90
2023-05-13T19:27:02.153Z,99.90
2023-05-13T19:29:33.001Z,99.90
2023-05-13T19:32:01.213Z,99.90
2023-05-13T19:34:29.488Z,99.90
2023-05-13T19:37:09.692Z,99.90
2023-05-13T19:39:40.044Z,99.90
2023-05-13T19:42:08.661Z,99.90
2023-05-13T19:44:37.065Z,99.90
2023-05-13T19:47:06.463Z,99.90
2023-05-13T19:49:34.793Z,99.90
2023-05-13T19:52:03.378Z,99.90
2023-05-13T19:54:31.597Z,99.90
2023-05-13T19:57:04.282Z,99.90
2023-05-13T19:59:32.572Z,99.90
2023-05-13T20:02:01.138Z,99.90
2023-05-13T20:04:38.330Z,99.90
2023-05-13T20:07:08.019Z,99.90
2023-05-13T20:09:37.626Z,99.90
2023-05-13T20:12:07.902Z,99.90
2023-05-13T20:14:49.503Z,99.90
2023-05-13T20:17:18.958Z,99.90
2023-05-13T20:19:48.447Z,99.90
2023-05-13T20:22:17.438Z,99.90
2023-05-13T20:24:46.736Z,99.90
2023-05-13T20:27:17.320Z,99.90
2023-05-13T20:29:47.002Z,99.90
2023-05-13T20:32:18.411Z,99.90
2023-05-13T20:34:46.686Z,99.90
2023-05-13T20:37:16.815Z,99.90
2023-05-13T20:39:45.089Z,99.90
2023-05-13T20:42:13.367Z,99.90
2023-05-13T20:44:44.288Z,99.90
2023-05-13T20:47:12.571Z,99.90
2023-05-13T20:49:43.873Z,99.90
2023-05-13T20:52:12.548Z,99.90
2023-05-13T20:54:40.816Z,99.90
2023-05-13T20:57:09.052Z,99.90
2023-05-13T20:59:37.456Z,99.90
2023-05-13T21:02:07.710Z,99.90
2023-05-13T21:04:36.196Z,99.90
2023-05-13T21:07:06.778Z,99.90
2023-05-13T21:09:35.060Z,99.90
2023-05-13T21:12:03.503Z,99.90
2023-05-13T21:14:31.722Z,99.90
2023-05-13T21:17:03.001Z,99.90
2023-05-13T21:19:32.686Z,99.90
2023-05-13T21:22:02.284Z,99.90
2023-05-13T21:24:30.503Z,99.90
2023-05-13T21:26:58.799Z,99.90
2023-05-13T21:29:27.040Z,99.90
2023-05-13T21:31:58.001Z,99.90
2023-05-13T21:34:26.383Z,99.90
2023-05-13T21:36:56.046Z,99.90
2023-05-13T21:39:27.122Z,99.90
2023-05-13T21:41:55.380Z,99.90
2023-05-13T21:44:24.858Z,99.90
2023-05-13T21:46:53.140Z,99.90
2023-05-13T21:49:21.557Z,99.90
2023-05-13T21:51:49.849Z,99.90
2023-05-13T21:54:19.746Z,99.90
2023-05-13T21:56:48.052Z,99.90
2023-05-13T21:59:16.466Z,99.90
2023-05-13T22:01:47.755Z,99.90
2023-05-13T22:04:16.079Z,99.90
2023-05-13T22:06:44.315Z,99.90
2023-05-13T22:09:12.591Z,99.90
2023-05-13T22:11:42.265Z,99.90
2023-05-13T22:14:10.677Z,99.90
2023-05-13T22:16:39.114Z,99.90
2023-05-13T22:19:07.552Z,99.90
2023-05-13T22:21:35.940Z,99.90
2023-05-13T22:24:06.349Z,99.90
2023-05-13T22:26:34.914Z,99.90
2023-05-13T22:29:04.717Z,99.90
2023-05-13T22:31:33.032Z,99.90
2023-05-13T22:34:02.210Z,99.90
2023-05-13T22:36:31.066Z,99.90
2023-05-13T22:38:59.404Z,99.90
2023-05-13T22:41:27.619Z,99.90
2023-05-13T22:43:55.954Z,99.90
2023-05-13T22:46:25.799Z,99.90
2023-05-13T22:48:57.161Z,99.90
2023-05-13T22:51:25.461Z,99.90
2023-05-13T22:53:53.737Z,99.90
2023-05-13T22:56:22.769Z,99.90
2023-05-13T22:58:50.983Z,99.90
2023-05-13T23:01:19.296Z,99.90
2023-05-13T23:03:49.054Z,99.90
2023-05-13T23:06:17.345Z,99.90
2023-05-13T23:08:45.626Z,99.90
2023-05-13T23:11:13.888Z,99.90
2023-05-13T23:13:42.165Z,99.90
2023-05-13T23:16:10.636Z,99.90
2023-05-13T23:18:38.985Z,99.90
2023-05-13T23:21:09.215Z,99.90
2023-05-13T23:23:37.737Z,99.90
2023-05-13T23:26:06.732Z,99.90
2023-05-13T23:28:36.111Z,99.90
2023-05-13T23:31:04.464Z,99.90
2023-05-13T23:33:32.758Z,99.90
2023-05-13T23:36:01.036Z,99.90
2023-05-13T23:38:30.760Z,99.90
2023-05-13T23:40:59.018Z,99.90
2023-05-13T23:43:27.345Z,99.90
2023-05-13T23:45:55.815Z,99.90
2023-05-13T23:48:24.123Z,99.90
2023-05-13T23:50:52.366Z,99.90
2023-05-13T23:53:20.591Z,99.90
2023-05-13T23:55:50.478Z,99.90
2023-05-13T23:58:18.822Z,99.90
